Time;durP1;ratioP1;P1;durP2;ratioP2;P2;SDS_P1;SDS_P2;PMS_P1;PMS_P2;Temp;Humidity;BMP_temperature;BMP_pressure;BME280_temperature;BME280_humidity;BME280_pressure;Samples;Min_cycle;Max_cycle;Signal;HPM_P1;HPM_P2
2021/12/21 00:00:52;;;;;;;;;;;7.30;46.90;;;;;;5047055;28;19909;-67
2021/12/21 00:03:17;;;;;;;;;;;7.30;47.00;;;;;;5044089;28;19909;-65
2021/12/21 00:05:43;;;;;;;;;;;7.30;46.80;;;;;;5045371;28;19924;-65
2021/12/21 00:08:11;;;;;;;;;;;7.30;46.80;;;;;;5046823;28;19909;-68
2021/12/21 00:10:39;;;;;;;;;;;7.30;46.70;;;;;;5045308;28;19914;-67
2021/12/21 00:13:10;;;;;;;;;;;7.30;46.90;;;;;;5047883;28;19909;-68
2021/12/21 00:15:54;;;;;;;;;;;7.40;46.50;;;;;;5049386;28;19917;-67
2021/12/21 00:23:34;;;;;;;;;;;7.30;46.70;;;;;;5059670;28;20316;-61
2021/12/21 00:26:03;;;;;;;;;;;7.40;46.40;;;;;;5062643;28;19959;-61
2021/12/21 00:28:36;;;;;;;;;;;7.40;47.00;;;;;;5063026;28;19909;-63
2021/12/21 00:31:02;;;;;;;;;;;7.40;46.70;;;;;;5062920;28;19963;-61
2021/12/21 00:33:27;;;;;;;;;;;7.30;47.10;;;;;;5059691;28;19909;-61
2021/12/21 00:35:53;;;;;;;;;;;7.20;47.20;;;;;;5060138;28;19917;-61
2021/12/21 00:38:18;;;;;;;;;;;7.30;47.50;;;;;;5057847;28;20347;-61
2021/12/21 00:40:44;;;;;;;;;;;7.20;47.90;;;;;;5056603;28;20304;-62
2021/12/21 00:43:09;;;;;;;;;;;7.30;47.90;;;;;;5057066;28;20312;-60
2021/12/21 00:45:35;;;;;;;;;;;7.10;48.50;;;;;;5060811;28;19961;-62
2021/12/21 00:48:01;;;;;;;;;;;7.10;48.50;;;;;;5067539;28;19956;-63
2021/12/21 00:50:26;;;;;;;;;;;7.20;48.60;;;;;;5056338;28;19913;-63
2021/12/21 00:52:53;;;;;;;;;;;7.20;48.80;;;;;;5056594;28;19915;-61
2021/12/21 00:55:20;;;;;;;;;;;7.10;49.20;;;;;;5056060;28;20288;-64
2021/12/21 00:57:45;;;;;;;;;;;7.00;49.70;;;;;;5056328;28;19909;-63
2021/12/21 01:00:12;;;;;;;;;;;7.00;49.70;;;;;;5056260;28;19947;-62
2021/12/21 01:02:39;;;;;;;;;;;6.90;49.70;;;;;;5056104;28;19920;-63
2021/12/21 01:05:09;;;;;;;;;;;6.90;49.80;;;;;;5056257;28;20003;-63
2021/12/21 01:07:39;;;;;;;;;;;6.90;50.00;;;;;;5055899;28;20008;-62
2021/12/21 01:12:58;;;;;;;;;;;6.80;50.80;;;;;;5055635;28;19963;-63
2021/12/21 01:15:46;;;;;;;;;;;6.80;50.40;;;;;;5055731;28;19923;-62
2021/12/21 01:18:20;;;;;;;;;;;6.70;50.40;;;;;;5055122;28;19920;-62
2021/12/21 01:23:38;;;;;;;;;;;6.80;50.30;;;;;;5055753;28;19991;-62
2021/12/21 01:28:42;;;;;;;;;;;6.80;49.80;;;;;;5055580;28;20441;-61
2021/12/21 01:31:39;;;;;;;;;;;6.80;49.60;;;;;;5055308;28;20352;-60
2021/12/21 01:36:50;;;;;;;;;;;6.80;49.80;;;;;;5055681;28;20432;-62
2021/12/21 01:41:54;;;;;;;;;;;6.90;48.90;;;;;;5055565;28;19908;-63
2021/12/21 01:49:42;;;;;;;;;;;6.80;48.30;;;;;;5054954;28;19920;-61
2021/12/21 01:52:10;;;;;;;;;;;6.90;48.40;;;;;;5055111;28;19959;-62
2021/12/21 01:54:35;;;;;;;;;;;6.90;48.00;;;;;;5054996;28;19962;-63
2021/12/21 01:57:01;;;;;;;;;;;6.90;48.30;;;;;;5055146;28;19917;-62
2021/12/21 01:59:27;;;;;;;;;;;6.80;48.10;;;;;;5054737;28;19952;-62
2021/12/21 02:01:52;;;;;;;;;;;6.80;48.30;;;;;;5054802;28;19916;-60
2021/12/21 02:04:18;;;;;;;;;;;6.80;47.60;;;;;;5054996;28;19923;-62
2021/12/21 02:06:44;;;;;;;;;;;6.90;47.90;;;;;;5054824;28;19916;-60
2021/12/21 02:09:10;;;;;;;;;;;6.90;47.30;;;;;;5054955;28;19916;-60
2021/12/21 02:11:36;;;;;;;;;;;6.80;47.40;;;;;;5054645;28;20349;-65
2021/12/21 02:14:02;;;;;;;;;;;6.80;47.60;;;;;;5045846;28;19913;-63
2021/12/21 02:16:36;;;;;;;;;;;6.90;46.00;;;;;;5034801;28;20319;-62
2021/12/21 02:19:16;;;;;;;;;;;6.90;46.20;;;;;;5034721;28;19921;-62
2021/12/21 02:21:48;;;;;;;;;;;7.00;46.20;;;;;;5033678;28;19916;-62
2021/12/21 02:24:18;;;;;;;;;;;6.90;45.90;;;;;;5034588;28;19957;-62
2021/12/21 02:26:50;;;;;;;;;;;7.00;46.00;;;;;;5034555;28;19968;-62
2021/12/21 02:29:18;;;;;;;;;;;7.00;46.00;;;;;;5034435;28;20753;-61
2021/12/21 02:31:45;;;;;;;;;;;7.00;46.10;;;;;;5034481;28;19909;-61
2021/12/21 02:34:11;;;;;;;;;;;7.00;45.40;;;;;;5034200;28;19928;-62
2021/12/21 02:36:38;;;;;;;;;;;7.00;45.50;;;;;;5034352;28;19909;-62
2021/12/21 02:39:04;;;;;;;;;;;7.00;45.70;;;;;;5034025;28;20365;-62
2021/12/21 02:41:30;;;;;;;;;;;7.10;45.70;;;;;;5034066;28;20329;-61
2021/12/21 02:43:56;;;;;;;;;;;7.10;45.50;;;;;;5034292;28;19945;-62
2021/12/21 02:46:23;;;;;;;;;;;7.00;45.80;;;;;;5033800;28;19913;-66
2021/12/21 02:48:48;;;;;;;;;;;7.00;45.40;;;;;;5034101;28;19996;-61
2021/12/21 02:51:14;;;;;;;;;;;7.00;45.30;;;;;;5033812;28;19910;-61
2021/12/21 02:53:41;;;;;;;;;;;7.10;45.30;;;;;;5034090;28;20384;-62
2021/12/21 02:56:07;;;;;;;;;;;7.10;45.20;;;;;;5033705;28;19917;-61
2021/12/21 02:58:32;;;;;;;;;;;7.10;44.80;;;;;;5033817;28;19909;-62
2021/12/21 03:00:58;;;;;;;;;;;7.00;45.00;;;;;;5033918;28;20012;-61
2021/12/21 03:03:26;;;;;;;;;;;7.00;45.50;;;;;;5033857;28;19955;-62
2021/12/21 03:05:55;;;;;;;;;;;7.00;46.00;;;;;;5033705;28;19913;-62
2021/12/21 03:08:23;;;;;;;;;;;7.00;45.80;;;;;;5033821;28;19913;-62
2021/12/21 03:11:08;;;;;;;;;;;7.00;45.10;;;;;;5033387;28;19916;-62
2021/12/21 03:16:18;;;;;;;;;;;6.90;46.30;;;;;;5033669;28;20316;-61
2021/12/21 03:18:44;;;;;;;;;;;6.80;46.20;;;;;;5032040;28;19968;-62
2021/12/21 03:21:10;;;;;;;;;;;6.80;45.70;;;;;;5033454;28;19964;-61
2021/12/21 03:23:35;;;;;;;;;;;6.90;45.70;;;;;;5033565;28;19955;-61
2021/12/21 03:26:01;;;;;;;;;;;6.90;45.70;;;;;;5033769;28;19917;-63
2021/12/21 03:28:26;;;;;;;;;;;6.90;45.70;;;;;;5043753;28;19909;-61
2021/12/21 03:30:52;;;;;;;;;;;6.90;45.50;;;;;;5041180;28;19952;-62
2021/12/21 03:33:18;;;;;;;;;;;6.80;46.20;;;;;;5033252;28;19917;-62
2021/12/21 03:35:43;;;;;;;;;;;6.90;44.60;;;;;;5033313;28;19949;-62
2021/12/21 03:38:09;;;;;;;;;;;6.90;44.50;;;;;;5033320;28;19913;-62
2021/12/21 03:40:35;;;;;;;;;;;6.90;44.30;;;;;;5033390;28;20348;-62
2021/12/21 03:43:01;;;;;;;;;;;6.90;44.70;;;;;;5033424;28;19999;-62
2021/12/21 03:45:31;;;;;;;;;;;6.90;45.60;;;;;;5033196;28;19964;-61
2021/12/21 03:47:57;;;;;;;;;;;6.80;45.40;;;;;;5033291;28;19916;-62
2021/12/21 03:50:22;;;;;;;;;;;6.80;45.70;;;;;;5032844;28;19909;-62
2021/12/21 03:52:48;;;;;;;;;;;6.80;46.10;;;;;;5033411;28;19932;-62
2021/12/21 03:55:14;;;;;;;;;;;6.80;47.00;;;;;;5033248;28;19921;-61
2021/12/21 03:57:39;;;;;;;;;;;6.70;47.20;;;;;;5033173;28;19920;-61
2021/12/21 04:00:06;;;;;;;;;;;6.70;47.40;;;;;;5033038;28;19909;-62
2021/12/21 04:02:32;;;;;;;;;;;6.70;47.20;;;;;;5032880;28;20035;-61
2021/12/21 04:04:59;;;;;;;;;;;6.70;47.80;;;;;;5033107;28;19952;-62
2021/12/21 04:07:25;;;;;;;;;;;6.70;47.30;;;;;;5033163;28;19963;-61
2021/12/21 04:09:50;;;;;;;;;;;6.80;47.60;;;;;;5032895;28;19913;-62
2021/12/21 04:12:16;;;;;;;;;;;6.70;47.80;;;;;;5033187;28;19909;-61
2021/12/21 04:14:41;;;;;;;;;;;6.60;48.30;;;;;;5033137;28;19921;-61
2021/12/21 04:17:07;;;;;;;;;;;6.60;48.90;;;;;;5033215;28;19909;-61
2021/12/21 04:19:33;;;;;;;;;;;6.70;48.60;;;;;;5032711;28;19928;-62
2021/12/21 04:21:58;;;;;;;;;;;6.60;48.80;;;;;;5033003;28;19909;-62
2021/12/21 04:24:24;;;;;;;;;;;6.60;48.10;;;;;;5033099;28;19910;-62
2021/12/21 04:26:49;;;;;;;;;;;6.60;48.40;;;;;;5032926;28;20000;-61
2021/12/21 04:29:15;;;;;;;;;;;6.60;48.30;;;;;;5033019;28;20251;-62
2021/12/21 04:31:41;;;;;;;;;;;6.60;48.00;;;;;;5032895;28;20111;-61
2021/12/21 04:34:06;;;;;;;;;;;6.70;47.50;;;;;;5032553;28;19909;-61
2021/12/21 04:36:32;;;;;;;;;;;6.70;47.20;;;;;;5033047;28;19988;-62
2021/12/21 04:39:00;;;;;;;;;;;6.80;47.10;;;;;;5015146;28;19910;-62
2021/12/21 04:41:28;;;;;;;;;;;6.80;47.00;;;;;;5032702;28;19913;-62
2021/12/21 04:43:54;;;;;;;;;;;6.80;46.90;;;;;;5034908;28;20357;-62
2021/12/21 04:46:20;;;;;;;;;;;6.80;46.40;;;;;;5041125;28;19932;-62
2021/12/21 04:48:46;;;;;;;;;;;6.80;46.60;;;;;;5042086;28;19909;-63
2021/12/21 04:51:11;;;;;;;;;;;6.70;47.00;;;;;;5039683;28;20316;-61
2021/12/21 04:53:37;;;;;;;;;;;6.70;47.40;;;;;;5041723;28;19913;-62
2021/12/21 04:56:03;;;;;;;;;;;6.70;47.80;;;;;;5039331;28;19917;-61
2021/12/21 04:58:29;;;;;;;;;;;6.70;47.70;;;;;;5036179;28;20348;-62
2021/12/21 05:00:54;;;;;;;;;;;6.60;48.00;;;;;;5036037;28;19956;-61
2021/12/21 05:03:20;;;;;;;;;;;6.70;47.50;;;;;;5036019;28;20371;-63
2021/12/21 05:05:45;;;;;;;;;;;6.60;47.90;;;;;;5036015;28;20296;-61
2021/12/21 05:08:19;;;;;;;;;;;6.60;48.00;;;;;;5036244;28;19913;-62
2021/12/21 05:10:52;;;;;;;;;;;6.60;48.40;;;;;;5035642;28;19909;-60
2021/12/21 05:13:18;;;;;;;;;;;6.50;48.40;;;;;;5035974;28;19988;-62
2021/12/21 05:15:44;;;;;;;;;;;6.60;48.00;;;;;;5035531;28;19925;-61
2021/12/21 05:18:10;;;;;;;;;;;6.50;48.10;;;;;;5035940;28;19917;-61
2021/12/21 05:20:36;;;;;;;;;;;6.60;47.90;;;;;;5035750;28;19909;-61
2021/12/21 05:23:02;;;;;;;;;;;6.60;48.10;;;;;;5035652;28;19913;-64
2021/12/21 05:25:27;;;;;;;;;;;6.50;48.00;;;;;;5035620;28;19909;-63
2021/12/21 05:27:53;;;;;;;;;;;6.50;48.40;;;;;;5035595;28;19917;-62
2021/12/21 05:30:18;;;;;;;;;;;6.50;48.30;;;;;;5035481;28;19909;-61
2021/12/21 05:32:44;;;;;;;;;;;6.50;48.30;;;;;;5035443;28;20360;-61
2021/12/21 05:35:10;;;;;;;;;;;6.50;49.30;;;;;;5035456;28;19921;-62
2021/12/21 05:37:38;;;;;;;;;;;6.40;49.10;;;;;;5035527;28;19915;-62
2021/12/21 05:40:16;;;;;;;;;;;6.40;49.20;;;;;;5035238;28;19909;-63
2021/12/21 05:42:42;;;;;;;;;;;6.40;49.20;;;;;;5035260;28;20466;-62
2021/12/21 05:45:09;;;;;;;;;;;6.40;49.00;;;;;;5035327;28;19928;-62
2021/12/21 05:47:35;;;;;;;;;;;6.40;49.10;;;;;;5035181;28;19910;-62
2021/12/21 05:50:01;;;;;;;;;;;6.40;49.10;;;;;;5035190;28;19909;-62
2021/12/21 05:52:26;;;;;;;;;;;6.40;48.70;;;;;;5035049;28;20348;-66
2021/12/21 05:54:52;;;;;;;;;;;6.40;48.60;;;;;;5034942;28;19927;-61
2021/12/21 05:57:17;;;;;;;;;;;6.40;48.50;;;;;;5034920;28;20377;-63
2021/12/21 05:59:43;;;;;;;;;;;6.40;48.30;;;;;;5034807;28;20004;-63
2021/12/21 06:02:08;;;;;;;;;;;6.50;48.10;;;;;;5035187;28;19916;-68
2021/12/21 06:04:34;;;;;;;;;;;6.50;48.10;;;;;;5034522;28;20422;-62
2021/12/21 06:07:00;;;;;;;;;;;6.50;48.50;;;;;;5034754;28;19909;-64
2021/12/21 06:09:27;;;;;;;;;;;6.50;47.90;;;;;;5017458;28;19909;-67
2021/12/21 06:12:08;;;;;;;;;;;6.50;48.10;;;;;;5034732;28;19948;-67
2021/12/21 06:23:07;;;;;;;;;;;6.40;48.20;;;;;;5035125;28;20310;-62
2021/12/21 06:25:37;;;;;;;;;;;6.40;48.50;;;;;;5034588;28;19920;-62
2021/12/21 06:28:07;;;;;;;;;;;6.40;48.10;;;;;;5034435;28;19959;-61
2021/12/21 06:30:32;;;;;;;;;;;6.40;48.20;;;;;;5034410;28;19936;-62
2021/12/21 06:32:58;;;;;;;;;;;6.50;48.00;;;;;;5034197;28;19909;-61
2021/12/21 06:35:24;;;;;;;;;;;6.50;48.00;;;;;;5034165;28;19921;-62
2021/12/21 06:37:50;;;;;;;;;;;6.50;48.10;;;;;;5034378;28;19909;-61
2021/12/21 06:40:16;;;;;;;;;;;6.40;48.10;;;;;;5033977;28;20102;-61
2021/12/21 06:42:43;;;;;;;;;;;6.40;48.20;;;;;;5034258;28;19924;-62
2021/12/21 06:45:23;;;;;;;;;;;6.50;47.70;;;;;;5034082;28;19910;-62
2021/12/21 06:53:16;;;;;;;;;;;7.30;49.00;;;;;;5034141;28;19916;-63
2021/12/21 06:55:42;;;;;;;;;;;7.50;47.90;;;;;;5033690;28;20369;-61
2021/12/21 06:58:07;;;;;;;;;;;7.60;46.80;;;;;;5034120;28;19910;-59
2021/12/21 07:00:33;;;;;;;;;;;7.50;47.10;;;;;;5015867;28;19916;-62
2021/12/21 07:02:59;;;;;;;;;;;7.60;46.30;;;;;;5033920;28;19917;-61
2021/12/21 07:05:24;;;;;;;;;;;7.60;46.40;;;;;;5033799;28;19916;-63
2021/12/21 07:07:52;;;;;;;;;;;7.60;46.10;;;;;;5032998;28;19909;-64
2021/12/21 07:10:23;;;;;;;;;;;7.60;45.90;;;;;;5037239;28;20391;-61
2021/12/21 07:20:27;;;;;;;;;;;7.60;46.40;;;;;;5072777;28;19913;-62
2021/12/21 07:22:52;;;;;;;;;;;7.60;45.30;;;;;;5072384;28;20253;-63
2021/12/21 07:25:18;;;;;;;;;;;7.60;45.60;;;;;;5072673;28;20294;-62
2021/12/21 07:27:44;;;;;;;;;;;7.60;45.70;;;;;;5072615;28;19981;-61
2021/12/21 07:30:10;;;;;;;;;;;7.40;46.20;;;;;;5069782;28;20364;-59
2021/12/21 07:32:35;;;;;;;;;;;7.40;46.10;;;;;;5072644;28;20420;-70
2021/12/21 07:35:02;;;;;;;;;;;7.30;46.00;;;;;;5072302;28;20011;-63
2021/12/21 07:37:27;;;;;;;;;;;7.10;46.30;;;;;;5072435;28;20011;-63
2021/12/21 07:39:53;;;;;;;;;;;6.90;46.50;;;;;;5072603;28;19999;-62
2021/12/21 07:42:19;;;;;;;;;;;6.90;47.00;;;;;;5069529;28;19913;-61
2021/12/21 07:44:45;;;;;;;;;;;6.80;46.80;;;;;;5072265;28;19995;-68
2021/12/21 07:47:10;;;;;;;;;;;6.80;46.80;;;;;;5072340;28;20003;-63
2021/12/21 07:49:36;;;;;;;;;;;6.90;47.00;;;;;;5071954;28;19913;-64
2021/12/21 07:52:03;;;;;;;;;;;6.80;46.90;;;;;;5072029;28;19913;-64
2021/12/21 07:54:28;;;;;;;;;;;6.90;47.10;;;;;;5072020;28;19921;-61
2021/12/21 07:56:54;;;;;;;;;;;6.80;46.60;;;;;;5069654;28;19995;-64
2021/12/21 07:59:19;;;;;;;;;;;6.90;46.70;;;;;;5072815;28;19944;-62
2021/12/21 08:01:45;;;;;;;;;;;6.90;46.80;;;;;;5072917;28;19958;-63
2021/12/21 08:04:11;;;;;;;;;;;6.80;47.00;;;;;;5055075;28;19970;-72
2021/12/21 08:06:37;;;;;;;;;;;6.90;47.00;;;;;;5072835;28;20393;-71
2021/12/21 08:09:04;;;;;;;;;;;6.90;47.00;;;;;;5073007;28;19916;-61
2021/12/21 08:14:02;;;;;;;;;;;6.80;47.00;;;;;;5073265;28;20400;-66
2021/12/21 08:16:28;;;;;;;;;;;6.80;47.50;;;;;;5072940;28;20336;-62
2021/12/21 08:18:53;;;;;;;;;;;6.90;47.10;;;;;;5073192;28;19963;-63
2021/12/21 08:21:19;;;;;;;;;;;7.00;47.10;;;;;;5076666;28;19961;-62
2021/12/21 08:23:45;;;;;;;;;;;7.00;47.30;;;;;;5077015;28;19999;-63
2021/12/21 08:26:11;;;;;;;;;;;7.10;47.20;;;;;;5076426;28;20375;-66
2021/12/21 08:28:37;;;;;;;;;;;7.00;47.00;;;;;;5063011;28;19948;-59
2021/12/21 08:31:02;;;;;;;;;;;7.10;47.20;;;;;;5055867;28;20268;-59
2021/12/21 08:33:28;;;;;;;;;;;7.00;46.90;;;;;;5055801;28;19990;-74
2021/12/21 08:35:54;;;;;;;;;;;7.10;46.70;;;;;;5055341;28;19925;-60
2021/12/21 08:38:20;;;;;;;;;;;7.10;46.90;;;;;;5055596;28;19916;-70
2021/12/21 08:40:49;;;;;;;;;;;7.10;46.60;;;;;;5055470;28;19909;-58
2021/12/21 08:43:19;;;;;;;;;;;7.00;46.80;;;;;;5053884;28;19916;-63
2021/12/21 08:45:46;;;;;;;;;;;7.10;46.10;;;;;;5054933;28;20253;-60
2021/12/21 08:48:12;;;;;;;;;;;7.20;46.50;;;;;;5055155;28;19912;-69
2021/12/21 08:50:38;;;;;;;;;;;7.20;46.30;;;;;;5054525;28;20007;-71
2021/12/21 08:53:04;;;;;;;;;;;7.30;46.30;;;;;;5055664;28;19939;-71
2021/12/21 08:55:29;;;;;;;;;;;7.20;46.70;;;;;;5055108;28;20324;-70
2021/12/21 08:57:55;;;;;;;;;;;7.20;46.60;;;;;;5056106;28;19909;-67
2021/12/21 09:00:21;;;;;;;;;;;7.30;46.20;;;;;;5048139;28;19920;-63
2021/12/21 09:02:46;;;;;;;;;;;7.30;46.30;;;;;;5047347;28;20007;-64
2021/12/21 09:05:16;;;;;;;;;;;7.30;46.20;;;;;;5061153;28;19913;-69
2021/12/21 09:07:42;;;;;;;;;;;7.30;46.20;;;;;;5069521;28;19995;-62
2021/12/21 09:10:08;;;;;;;;;;;7.30;46.50;;;;;;5075823;28;19915;-60
2021/12/21 09:12:34;;;;;;;;;;;7.40;46.00;;;;;;5075919;28;19908;-61
2021/12/21 09:15:00;;;;;;;;;;;7.40;46.10;;;;;;5075119;28;20384;-61
2021/12/21 09:17:26;;;;;;;;;;;7.50;46.20;;;;;;5075614;28;19923;-61
2021/12/21 09:19:51;;;;;;;;;;;7.50;46.40;;;;;;5073006;28;19920;-64
2021/12/21 09:22:17;;;;;;;;;;;7.50;46.30;;;;;;5078580;28;19999;-64
2021/12/21 09:24:43;;;;;;;;;;;7.60;46.00;;;;;;5078158;28;20276;-62
2021/12/21 09:27:08;;;;;;;;;;;7.60;46.10;;;;;;5065843;28;20027;-59
2021/12/21 09:29:34;;;;;;;;;;;7.60;46.10;;;;;;5054908;28;19913;-69
2021/12/21 09:31:59;;;;;;;;;;;7.60;46.10;;;;;;5041845;28;19934;-59
2021/12/21 09:34:25;;;;;;;;;;;7.60;46.20;;;;;;5064495;28;19978;-68
2021/12/21 09:36:52;;;;;;;;;;;7.70;45.90;;;;;;5055580;28;19921;-69
2021/12/21 09:39:18;;;;;;;;;;;7.70;45.80;;;;;;5056938;28;20343;-59
2021/12/21 09:41:44;;;;;;;;;;;7.70;45.80;;;;;;5055110;28;19956;-60
2021/12/21 09:44:10;;;;;;;;;;;7.80;45.90;;;;;;5054694;28;19917;-58
2021/12/21 09:46:35;;;;;;;;;;;7.80;46.20;;;;;;5053035;28;19936;-62
2021/12/21 09:49:01;;;;;;;;;;;7.80;46.20;;;;;;5053155;28;19921;-62
2021/12/21 09:51:27;;;;;;;;;;;7.80;46.20;;;;;;5051850;28;19958;-62
2021/12/21 09:53:55;;;;;;;;;;;7.90;46.00;;;;;;5053660;28;20043;-66
2021/12/21 09:56:21;;;;;;;;;;;7.90;46.20;;;;;;5054229;28;19917;-62
2021/12/21 09:58:47;;;;;;;;;;;7.90;46.10;;;;;;5054188;28;19924;-60
2021/12/21 10:01:14;;;;;;;;;;;8.00;46.30;;;;;;5054219;28;19920;-69
2021/12/21 10:03:40;;;;;;;;;;;8.00;46.30;;;;;;5065478;28;19916;-63
2021/12/21 10:06:07;;;;;;;;;;;7.90;46.60;;;;;;5066643;28;20365;-63
2021/12/21 10:08:33;;;;;;;;;;;8.00;46.30;;;;;;5067264;28;20336;-67
2021/12/21 10:11:00;;;;;;;;;;;8.10;46.30;;;;;;5067220;28;19999;-63
2021/12/21 10:13:26;;;;;;;;;;;8.10;46.20;;;;;;5074417;28;19931;-64
2021/12/21 10:15:56;;;;;;;;;;;8.10;46.10;;;;;;5074180;28;20460;-64
2021/12/21 10:18:28;;;;;;;;;;;8.10;46.40;;;;;;5073887;28;20007;-72
2021/12/21 10:20:56;;;;;;;;;;;8.10;46.60;;;;;;5074313;28;19975;-69
2021/12/21 10:23:23;;;;;;;;;;;8.00;46.90;;;;;;5074145;28;19909;-74
2021/12/21 10:25:50;;;;;;;;;;;8.00;47.10;;;;;;5074185;28;19909;-71
2021/12/21 10:28:29;;;;;;;;;;;8.00;47.10;;;;;;5071518;28;19915;-75
2021/12/21 10:30:55;;;;;;;;;;;8.10;47.40;;;;;;5074213;28;19989;-72
2021/12/21 10:33:23;;;;;;;;;;;8.00;47.60;;;;;;5071672;28;19909;-64
2021/12/21 10:35:49;;;;;;;;;;;8.10;48.30;;;;;;5065376;28;19972;-62
2021/12/21 10:38:34;;;;;;;;;;;8.10;48.20;;;;;;5073792;28;19912;-62
2021/12/21 10:41:12;;;;;;;;;;;8.30;48.20;;;;;;5073449;28;20047;-61
2021/12/21 10:43:39;;;;;;;;;;;8.30;48.80;;;;;;5045622;28;20279;-61
2021/12/21 10:46:05;;;;;;;;;;;8.40;48.90;;;;;;5073660;28;20359;-59
2021/12/21 10:48:35;;;;;;;;;;;8.30;48.40;;;;;;5073454;28;19909;-61
2021/12/21 10:51:01;;;;;;;;;;;8.30;48.60;;;;;;5073681;28;20244;-62
2021/12/21 10:53:27;;;;;;;;;;;8.40;48.90;;;;;;5073002;28;19952;-63
2021/12/21 10:56:07;;;;;;;;;;;8.30;49.20;;;;;;5072195;28;19970;-67
2021/12/21 10:58:36;;;;;;;;;;;8.30;49.40;;;;;;5062575;28;19917;-72
2021/12/21 11:01:04;;;;;;;;;;;8.30;49.60;;;;;;5066387;28;19927;-59
2021/12/21 11:03:51;;;;;;;;;;;8.30;49.50;;;;;;5069212;28;19908;-79
2021/12/21 11:06:18;;;;;;;;;;;8.30;49.70;;;;;;5071418;28;20307;-60
2021/12/21 11:08:45;;;;;;;;;;;8.30;50.20;;;;;;5057724;28;19913;-61
2021/12/21 11:11:24;;;;;;;;;;;8.30;51.30;;;;;;5071073;28;20431;-61
2021/12/21 11:14:01;;;;;;;;;;;8.30;51.20;;;;;;5072425;28;20286;-61
2021/12/21 11:16:41;;;;;;;;;;;8.30;51.00;;;;;;5047725;28;20264;-63
2021/12/21 11:19:07;;;;;;;;;;;8.30;51.40;;;;;;5072075;28;19927;-64
2021/12/21 11:21:33;;;;;;;;;;;8.20;52.70;;;;;;5072551;28;19912;-64
2021/12/21 11:24:18;;;;;;;;;;;8.30;52.80;;;;;;5072362;28;20393;-68
2021/12/21 11:26:46;;;;;;;;;;;8.40;52.60;;;;;;5062994;28;19912;-68
2021/12/21 11:29:18;;;;;;;;;;;8.60;52.30;;;;;;5063927;28;19916;-75
2021/12/21 11:31:47;;;;;;;;;;;8.60;52.40;;;;;;5070859;28;19955;-71
2021/12/21 11:34:15;;;;;;;;;;;8.70;52.00;;;;;;5062079;28;20011;-71
2021/12/21 11:39:31;;;;;;;;;;;8.60;52.50;;;;;;5072478;28;19931;-72
2021/12/21 11:41:57;;;;;;;;;;;8.70;53.00;;;;;;5072919;28;19915;-70
2021/12/21 11:44:29;;;;;;;;;;;8.60;52.60;;;;;;5072422;28;20010;-69
2021/12/21 11:46:58;;;;;;;;;;;8.60;51.80;;;;;;5072305;28;19919;-69
2021/12/21 11:49:34;;;;;;;;;;;8.30;51.40;;;;;;5072296;28;19952;-71
2021/12/21 11:52:07;;;;;;;;;;;8.30;52.10;;;;;;5086949;28;19892;-75
2021/12/21 11:54:41;;;;;;;;;;;8.30;52.50;;;;;;5099318;28;19934;-64
2021/12/21 11:57:06;;;;;;;;;;;8.20;53.10;;;;;;5099557;28;19919;-61
2021/12/21 11:59:32;;;;;;;;;;;8.10;53.20;;;;;;5093258;28;20356;-65
2021/12/21 12:02:01;;;;;;;;;;;8.20;53.70;;;;;;5077710;28;19908;-65
2021/12/21 12:04:27;;;;;;;;;;;8.20;53.20;;;;;;5058917;28;19916;-74
2021/12/21 12:06:54;;;;;;;;;;;8.10;52.80;;;;;;5076839;28;19975;-74
2021/12/21 12:09:24;;;;;;;;;;;8.00;53.30;;;;;;5076420;28;20034;-76
2021/12/21 12:11:50;;;;;;;;;;;7.90;54.40;;;;;;5076390;28;20372;-76
2021/12/21 12:14:19;;;;;;;;;;;7.80;55.10;;;;;;5076373;28;19908;-61
2021/12/21 12:16:53;;;;;;;;;;;7.50;55.60;;;;;;5075550;28;19919;-77
2021/12/21 12:19:20;;;;;;;;;;;7.50;56.10;;;;;;5072326;28;20398;-70
2021/12/21 12:21:53;;;;;;;;;;;7.40;56.90;;;;;;5069898;28;19908;-66
2021/12/21 12:24:19;;;;;;;;;;;7.30;57.80;;;;;;5075256;28;19944;-75
2021/12/21 12:26:55;;;;;;;;;;;7.40;58.70;;;;;;5052449;28;19917;-80
2021/12/21 12:29:20;;;;;;;;;;;7.40;59.20;;;;;;5068873;28;19996;-70
2021/12/21 12:31:56;;;;;;;;;;;7.60;59.30;;;;;;5074848;28;20003;-66
2021/12/21 12:34:22;;;;;;;;;;;7.60;59.50;;;;;;5071552;28;19908;-73
2021/12/21 12:36:51;;;;;;;;;;;7.60;59.60;;;;;;5072278;28;19966;-77
2021/12/21 12:39:34;;;;;;;;;;;7.50;59.50;;;;;;5069360;28;19909;-65
2021/12/21 12:42:01;;;;;;;;;;;7.60;59.80;;;;;;5075001;28;20592;-68
2021/12/21 12:44:26;;;;;;;;;;;7.50;60.00;;;;;;5074618;28;19909;-73
2021/12/21 12:46:53;;;;;;;;;;;7.50;60.50;;;;;;5074999;28;19959;-71
2021/12/21 12:49:27;;;;;;;;;;;7.50;60.80;;;;;;5075253;28;19908;-67
2021/12/21 12:52:01;;;;;;;;;;;7.60;60.50;;;;;;5075517;28;20364;-74
2021/12/21 12:54:28;;;;;;;;;;;7.60;60.60;;;;;;5074469;28;19912;-68
2021/12/21 12:56:54;;;;;;;;;;;7.60;60.60;;;;;;5069262;28;20384;-78
2021/12/21 12:59:19;;;;;;;;;;;7.70;60.70;;;;;;5074730;28;19916;-72
2021/12/21 13:01:46;;;;;;;;;;;7.80;61.10;;;;;;5074781;28;20260;-77
2021/12/21 13:04:13;;;;;;;;;;;7.90;61.00;;;;;;5074729;28;19915;-73
2021/12/21 13:06:40;;;;;;;;;;;7.80;61.40;;;;;;5050606;28;19936;-72
2021/12/21 13:09:07;;;;;;;;;;;7.90;61.60;;;;;;5074361;28;19990;-75
2021/12/21 13:11:34;;;;;;;;;;;8.00;61.40;;;;;;5074366;28;19913;-75
2021/12/21 13:14:00;;;;;;;;;;;8.00;62.00;;;;;;5069066;28;19919;-72
2021/12/21 13:16:27;;;;;;;;;;;8.10;62.40;;;;;;5068699;28;19924;-77
2021/12/21 13:18:57;;;;;;;;;;;7.90;62.60;;;;;;5074851;28;20299;-74
2021/12/21 13:21:24;;;;;;;;;;;7.70;64.90;;;;;;5074746;28;19938;-74
2021/12/21 13:23:51;;;;;;;;;;;7.70;65.90;;;;;;5075147;28;19916;-73
2021/12/21 13:26:18;;;;;;;;;;;7.90;66.00;;;;;;5074765;28;19908;-64
2021/12/21 13:28:56;;;;;;;;;;;7.80;66.30;;;;;;5075128;28;20318;-74
2021/12/21 13:31:23;;;;;;;;;;;7.80;66.30;;;;;;5074588;28;19933;-71
2021/12/21 13:33:53;;;;;;;;;;;7.60;66.60;;;;;;5074748;28;19909;-74
2021/12/21 13:36:19;;;;;;;;;;;7.40;66.70;;;;;;5074514;28;19920;-63
2021/12/21 13:38:44;;;;;;;;;;;7.20;68.40;;;;;;5074580;28;20260;-71
2021/12/21 13:41:11;;;;;;;;;;;7.20;69.00;;;;;;5074565;28;19954;-74
2021/12/21 13:43:39;;;;;;;;;;;7.00;69.80;;;;;;5074555;28;20003;-71
2021/12/21 13:46:07;;;;;;;;;;;6.90;71.00;;;;;;5074074;28;20292;-73
2021/12/21 13:48:34;;;;;;;;;;;6.90;72.10;;;;;;5074302;28;20013;-70
2021/12/21 13:51:15;;;;;;;;;;;6.90;73.20;;;;;;5074671;28;20031;-69
2021/12/21 13:53:46;;;;;;;;;;;6.90;73.20;;;;;;5074490;28;19908;-67
2021/12/21 13:56:14;;;;;;;;;;;6.70;73.30;;;;;;5074075;28;20061;-72
2021/12/21 13:58:40;;;;;;;;;;;6.50;74.80;;;;;;5074261;28;19909;-65
2021/12/21 14:01:06;;;;;;;;;;;6.50;74.80;;;;;;5073858;28;19923;-67
2021/12/21 14:03:37;;;;;;;;;;;6.50;75.20;;;;;;5074190;28;20339;-62
2021/12/21 14:06:13;;;;;;;;;;;6.40;76.30;;;;;;5074285;28;19939;-61
2021/12/21 14:08:42;;;;;;;;;;;6.30;75.90;;;;;;5076015;28;19916;-66
2021/12/21 14:11:09;;;;;;;;;;;6.20;76.20;;;;;;5076851;28;19912;-67
2021/12/21 14:13:36;;;;;;;;;;;6.10;76.00;;;;;;5078706;28;19920;-66
2021/12/21 14:16:09;;;;;;;;;;;5.90;76.60;;;;;;5077550;28;19920;-64
2021/12/21 14:18:37;;;;;;;;;;;5.80;77.30;;;;;;5078935;28;19916;-61
2021/12/21 14:21:16;;;;;;;;;;;5.90;77.10;;;;;;5076371;28;19936;-63
2021/12/21 14:23:55;;;;;;;;;;;5.80;76.50;;;;;;5066552;28;19920;-69
2021/12/21 14:26:21;;;;;;;;;;;5.70;76.90;;;;;;5062859;28;19981;-61
2021/12/21 14:28:46;;;;;;;;;;;5.60;77.80;;;;;;5073620;28;19909;-60
2021/12/21 14:31:14;;;;;;;;;;;5.70;77.60;;;;;;5073146;28;19919;-63
2021/12/21 14:33:48;;;;;;;;;;;5.70;78.00;;;;;;5055755;28;20312;-65
2021/12/21 14:36:15;;;;;;;;;;;5.60;77.60;;;;;;5056257;28;20283;-63
2021/12/21 14:38:51;;;;;;;;;;;5.70;78.40;;;;;;5074021;28;19909;-63
2021/12/21 14:41:24;;;;;;;;;;;5.70;78.70;;;;;;5074015;28;19961;-62
2021/12/21 14:44:00;;;;;;;;;;;5.70;79.30;;;;;;5072745;28;20420;-62
2021/12/21 14:46:25;;;;;;;;;;;5.70;78.30;;;;;;5056228;28;19932;-65
2021/12/21 14:49:02;;;;;;;;;;;5.60;78.00;;;;;;5053297;28;19909;-64
2021/12/21 14:51:30;;;;;;;;;;;5.60;78.70;;;;;;5061036;28;19909;-68
2021/12/21 14:54:05;;;;;;;;;;;5.60;79.00;;;;;;5052789;28;19909;-65
2021/12/21 14:56:35;;;;;;;;;;;5.70;78.50;;;;;;5055095;28;20417;-64
2021/12/21 14:59:02;;;;;;;;;;;5.60;79.10;;;;;;5058650;28;19913;-63
2021/12/21 15:01:42;;;;;;;;;;;5.70;79.00;;;;;;5055215;28;19913;-61
2021/12/21 15:04:11;;;;;;;;;;;5.70;78.50;;;;;;5051687;28;19924;-64
2021/12/21 15:06:37;;;;;;;;;;;5.80;78.80;;;;;;5052562;28;19909;-60
2021/12/21 15:09:02;;;;;;;;;;;5.60;78.50;;;;;;5052350;28;19935;-62
2021/12/21 15:11:28;;;;;;;;;;;5.60;79.50;;;;;;5052343;28;19932;-59
2021/12/21 15:13:53;;;;;;;;;;;5.60;79.40;;;;;;5052107;28;19915;-62
2021/12/21 15:16:19;;;;;;;;;;;5.70;79.20;;;;;;5052964;28;19917;-66
2021/12/21 15:18:44;;;;;;;;;;;5.70;78.80;;;;;;5052904;28;19921;-61
2021/12/21 15:21:10;;;;;;;;;;;5.70;80.10;;;;;;5052259;28;19912;-63
2021/12/21 15:23:36;;;;;;;;;;;5.80;79.50;;;;;;5053709;28;20311;-69
2021/12/21 15:26:01;;;;;;;;;;;5.90;79.30;;;;;;5053523;28;19932;-68
2021/12/21 15:28:27;;;;;;;;;;;6.00;78.90;;;;;;5052760;28;19964;-73